Time;durP1;ratioP1;P1;durP2;ratioP2;P2;SDS_P1;SDS_P2;PMS_P1;PMS_P2;Temp;Humidity;BMP_temperature;BMP_pressure;BME280_temperature;BME280_humidity;BME280_pressure;Samples;Min_cycle;Max_cycle;Signal;HPM_P1;HPM_P2
2021/01/09 00:00:44;;;;;;;;;;;4.40;96.90;;;;;;4302279;33;19976;-22
2021/01/09 00:03:10;;;;;;;;;;;4.40;96.90;;;;;;4302186;33;20053;-22
2021/01/09 00:05:38;;;;;;;;;;;4.40;96.90;;;;;;4302515;33;19984;-22
2021/01/09 00:08:04;;;;;;;;;;;4.40;96.90;;;;;;4302462;33;19986;-22
2021/01/09 00:10:31;;;;;;;;;;;4.40;96.90;;;;;;4302152;33;20327;-23
2021/01/09 00:12:57;;;;;;;;;;;4.40;96.90;;;;;;4302219;33;19949;-22
2021/01/09 00:15:23;;;;;;;;;;;4.40;96.90;;;;;;4302191;33;20414;-23
2021/01/09 00:17:50;;;;;;;;;;;4.40;96.80;;;;;;4302238;33;19945;-23
2021/01/09 00:20:17;;;;;;;;;;;4.30;96.80;;;;;;4301934;33;19945;-23
2021/01/09 00:22:43;;;;;;;;;;;4.40;96.90;;;;;;4302089;33;20311;-23
2021/01/09 00:25:11;;;;;;;;;;;4.30;96.80;;;;;;4301973;33;19945;-22
2021/01/09 00:27:39;;;;;;;;;;;4.30;96.80;;;;;;4302120;33;19984;-22
2021/01/09 00:30:07;;;;;;;;;;;4.30;96.80;;;;;;4300831;33;19948;-23
2021/01/09 00:32:36;;;;;;;;;;;4.30;96.80;;;;;;4301731;33;20008;-22
2021/01/09 00:35:06;;;;;;;;;;;4.30;96.80;;;;;;4301094;33;19950;-22
2021/01/09 00:37:33;;;;;;;;;;;4.30;96.80;;;;;;4301868;33;19949;-22
2021/01/09 00:39:59;;;;;;;;;;;4.30;96.80;;;;;;4301883;33;19992;-22
2021/01/09 00:42:26;;;;;;;;;;;4.30;96.80;;;;;;4301840;33;19942;-22
2021/01/09 00:44:52;;;;;;;;;;;4.30;96.80;;;;;;4302087;33;19983;-22
2021/01/09 00:47:19;;;;;;;;;;;4.30;96.80;;;;;;4301977;33;19955;-22
2021/01/09 00:49:45;;;;;;;;;;;4.30;96.80;;;;;;4301411;33;19960;-22
2021/01/09 00:52:12;;;;;;;;;;;4.30;96.80;;;;;;4301611;33;19952;-22
2021/01/09 00:54:39;;;;;;;;;;;4.30;96.80;;;;;;4303446;33;20330;-22
2021/01/09 00:57:06;;;;;;;;;;;4.30;96.80;;;;;;4301735;33;19978;-22
2021/01/09 00:59:32;;;;;;;;;;;4.30;96.80;;;;;;4301375;33;19941;-22
2021/01/09 01:01:58;;;;;;;;;;;4.30;96.80;;;;;;4301193;33;20351;-23
2021/01/09 01:04:25;;;;;;;;;;;4.30;96.80;;;;;;4301745;33;20038;-22
2021/01/09 01:06:52;;;;;;;;;;;4.30;96.80;;;;;;4301528;33;19984;-22
2021/01/09 01:09:18;;;;;;;;;;;4.30;96.80;;;;;;4301766;33;19995;-22
2021/01/09 01:11:45;;;;;;;;;;;4.30;96.80;;;;;;4301606;33;19944;-23
2021/01/09 01:14:11;;;;;;;;;;;4.30;96.80;;;;;;4301278;33;20331;-22
2021/01/09 01:16:38;;;;;;;;;;;4.30;96.80;;;;;;4301324;33;19996;-22
2021/01/09 01:19:04;;;;;;;;;;;4.30;96.80;;;;;;4301466;33;20012;-22
2021/01/09 01:21:34;;;;;;;;;;;4.30;96.70;;;;;;4301349;33;19948;-22
2021/01/09 01:24:02;;;;;;;;;;;4.30;96.80;;;;;;4301573;33;19945;-22
2021/01/09 01:26:29;;;;;;;;;;;4.20;96.70;;;;;;4301437;33;19980;-22
2021/01/09 01:28:56;;;;;;;;;;;4.30;96.80;;;;;;4301066;33;19956;-22
2021/01/09 01:31:23;;;;;;;;;;;4.20;96.70;;;;;;4301188;33;19975;-22
2021/01/09 01:33:50;;;;;;;;;;;4.30;96.80;;;;;;4300229;33;19957;-22
2021/01/09 01:36:17;;;;;;;;;;;4.20;96.70;;;;;;4301382;33;19999;-22
2021/01/09 01:38:44;;;;;;;;;;;4.30;96.80;;;;;;4301497;33;19998;-22
2021/01/09 01:41:10;;;;;;;;;;;4.20;96.80;;;;;;4301573;33;20430;-22
2021/01/09 01:43:38;;;;;;;;;;;4.20;96.80;;;;;;4301084;33;19948;-22
2021/01/09 01:46:06;;;;;;;;;;;4.20;96.80;;;;;;4301357;33;20001;-22
2021/01/09 01:48:33;;;;;;;;;;;4.20;97.10;;;;;;4301215;33;19944;-22
2021/01/09 01:51:01;;;;;;;;;;;4.20;96.70;;;;;;4301283;33;19944;-22
2021/01/09 01:53:28;;;;;;;;;;;4.20;96.70;;;;;;4301293;33;20263;-23
2021/01/09 01:55:55;;;;;;;;;;;4.20;96.70;;;;;;4300902;33;19952;-22
2021/01/09 01:58:22;;;;;;;;;;;4.20;96.70;;;;;;4301482;33;19945;-23
2021/01/09 02:00:49;;;;;;;;;;;4.20;96.70;;;;;;4301022;33;20304;-22
2021/01/09 02:03:18;;;;;;;;;;;4.20;96.70;;;;;;4297739;33;19957;-22
2021/01/09 02:05:53;;;;;;;;;;;4.20;96.80;;;;;;4286789;33;19941;-22
2021/01/09 02:08:20;;;;;;;;;;;4.20;96.70;;;;;;4286864;33;20000;-22
2021/01/09 02:10:49;;;;;;;;;;;4.20;96.70;;;;;;4286500;33;19955;-22
2021/01/09 02:13:26;;;;;;;;;;;4.20;96.80;;;;;;4289259;33;20370;-22
2021/01/09 02:15:53;;;;;;;;;;;4.20;96.80;;;;;;4289657;33;19980;-22
2021/01/09 02:18:20;;;;;;;;;;;4.20;96.80;;;;;;4289371;33;19968;-22
2021/01/09 02:20:54;;;;;;;;;;;4.20;97.10;;;;;;4289327;33;19949;-22
2021/01/09 02:23:26;;;;;;;;;;;4.20;96.80;;;;;;4289614;33;20315;-22
2021/01/09 02:25:53;;;;;;;;;;;4.20;96.80;;;;;;4289693;33;19945;-22
2021/01/09 02:28:19;;;;;;;;;;;4.20;96.70;;;;;;4300252;33;19960;-22
2021/01/09 02:30:48;;;;;;;;;;;4.20;96.80;;;;;;4290811;33;19956;-22
2021/01/09 02:33:16;;;;;;;;;;;4.20;96.80;;;;;;4300176;33;19965;-23
2021/01/09 02:35:42;;;;;;;;;;;4.20;96.80;;;;;;4299968;33;19985;-22
2021/01/09 02:38:09;;;;;;;;;;;4.20;96.80;;;;;;4300442;33;19988;-22
2021/01/09 02:40:39;;;;;;;;;;;4.20;96.70;;;;;;4289288;33;19953;-22
2021/01/09 02:43:10;;;;;;;;;;;4.20;96.80;;;;;;4288593;33;19945;-22
2021/01/09 02:45:37;;;;;;;;;;;4.20;96.80;;;;;;4299942;33;19960;-22
2021/01/09 02:48:04;;;;;;;;;;;4.20;96.70;;;;;;4289039;33;19953;-22
2021/01/09 02:50:31;;;;;;;;;;;4.20;96.70;;;;;;4289230;33;19954;-22
2021/01/09 02:52:57;;;;;;;;;;;4.20;96.80;;;;;;4289140;33;19989;-22
2021/01/09 02:55:23;;;;;;;;;;;4.20;96.80;;;;;;4289063;33;19942;-22
2021/01/09 02:57:50;;;;;;;;;;;4.20;96.70;;;;;;4290500;33;19956;-22
2021/01/09 03:00:18;;;;;;;;;;;4.20;96.80;;;;;;4288851;33;19949;-22
2021/01/09 03:02:44;;;;;;;;;;;4.20;96.80;;;;;;4296746;33;20569;-22
2021/01/09 03:05:11;;;;;;;;;;;4.20;96.80;;;;;;4301923;33;19988;-22
2021/01/09 03:07:38;;;;;;;;;;;4.20;96.80;;;;;;4302994;33;19948;-22
2021/01/09 03:10:04;;;;;;;;;;;4.20;96.80;;;;;;4303201;33;19978;-22
2021/01/09 03:12:30;;;;;;;;;;;4.20;96.70;;;;;;4303026;33;19953;-22
2021/01/09 03:14:57;;;;;;;;;;;4.20;96.70;;;;;;4303071;33;19988;-23
2021/01/09 03:17:24;;;;;;;;;;;4.20;96.80;;;;;;4302672;33;19993;-22
2021/01/09 03:19:51;;;;;;;;;;;4.20;96.80;;;;;;4301675;33;19953;-22
2021/01/09 03:22:17;;;;;;;;;;;4.20;96.80;;;;;;4303101;33;19944;-22
2021/01/09 03:24:44;;;;;;;;;;;4.20;96.80;;;;;;4302420;33;19949;-22
2021/01/09 03:27:10;;;;;;;;;;;4.20;96.80;;;;;;4302867;33;19944;-22
2021/01/09 03:29:39;;;;;;;;;;;4.20;96.80;;;;;;4302877;33;19967;-23
2021/01/09 03:32:06;;;;;;;;;;;4.20;96.80;;;;;;4289854;33;19971;-22
2021/01/09 03:34:32;;;;;;;;;;;4.20;96.70;;;;;;4302877;33;19949;-22
2021/01/09 03:36:59;;;;;;;;;;;4.20;96.70;;;;;;4302589;33;19983;-22
2021/01/09 03:39:26;;;;;;;;;;;4.20;96.70;;;;;;4302601;33;19984;-23
2021/01/09 03:41:52;;;;;;;;;;;4.20;96.70;;;;;;4302574;33;19974;-23
2021/01/09 03:44:19;;;;;;;;;;;4.20;96.70;;;;;;4302698;33;20339;-23
2021/01/09 03:46:45;;;;;;;;;;;4.20;96.60;;;;;;4302687;33;19956;-23
2021/01/09 03:49:12;;;;;;;;;;;4.10;96.60;;;;;;4302346;33;19949;-22
2021/01/09 03:51:39;;;;;;;;;;;4.10;96.60;;;;;;4302405;33;20361;-22
2021/01/09 03:54:05;;;;;;;;;;;4.10;96.60;;;;;;4302644;33;19945;-22
2021/01/09 03:56:32;;;;;;;;;;;4.10;96.70;;;;;;4302501;33;19949;-23
2021/01/09 03:58:59;;;;;;;;;;;4.10;96.70;;;;;;4304015;33;19941;-23
2021/01/09 04:01:26;;;;;;;;;;;4.10;96.70;;;;;;4302239;33;19972;-22
2021/01/09 04:03:53;;;;;;;;;;;4.10;96.70;;;;;;4302327;33;19949;-23
2021/01/09 04:06:20;;;;;;;;;;;4.10;96.70;;;;;;4302168;33;19945;-23
2021/01/09 04:08:46;;;;;;;;;;;4.10;96.70;;;;;;4302168;33;19988;-22
2021/01/09 04:11:13;;;;;;;;;;;4.10;96.70;;;;;;4302344;33;20020;-22
2021/01/09 04:13:39;;;;;;;;;;;4.10;96.70;;;;;;4302221;33;19941;-23
2021/01/09 04:16:06;;;;;;;;;;;4.10;96.70;;;;;;4301900;33;19999;-22
2021/01/09 04:18:33;;;;;;;;;;;4.10;96.70;;;;;;4303871;33;20024;-22
2021/01/09 04:21:00;;;;;;;;;;;4.10;96.70;;;;;;4302212;33;20009;-22
2021/01/09 04:23:27;;;;;;;;;;;4.10;96.70;;;;;;4302296;33;19955;-22
2021/01/09 04:25:53;;;;;;;;;;;4.10;96.70;;;;;;4302067;33;19979;-22
2021/01/09 04:28:19;;;;;;;;;;;4.10;96.80;;;;;;4302068;33;20240;-22
2021/01/09 04:30:46;;;;;;;;;;;4.10;96.80;;;;;;4301013;33;20294;-22
2021/01/09 04:33:12;;;;;;;;;;;4.10;96.80;;;;;;4301756;33;19951;-22
2021/01/09 04:35:39;;;;;;;;;;;4.10;96.80;;;;;;4301445;33;19952;-22
2021/01/09 04:38:05;;;;;;;;;;;4.10;96.80;;;;;;4302101;33;19963;-22
2021/01/09 04:40:31;;;;;;;;;;;4.10;96.80;;;;;;4302020;33;19949;-22
2021/01/09 04:42:58;;;;;;;;;;;4.10;96.80;;;;;;4302064;33;19957;-22
2021/01/09 04:45:25;;;;;;;;;;;4.10;96.80;;;;;;4301905;33;19944;-22
2021/01/09 04:47:52;;;;;;;;;;;4.10;96.80;;;;;;4301899;33;20385;-22
2021/01/09 04:50:19;;;;;;;;;;;4.10;96.70;;;;;;4301646;33;19948;-22
2021/01/09 04:52:46;;;;;;;;;;;4.10;96.70;;;;;;4301893;33;20335;-22
2021/01/09 04:55:13;;;;;;;;;;;4.10;96.80;;;;;;4301855;33;20327;-22
2021/01/09 04:57:40;;;;;;;;;;;4.10;96.80;;;;;;4301719;33;19988;-22
2021/01/09 05:00:07;;;;;;;;;;;4.10;96.80;;;;;;4303464;33;19945;-22
2021/01/09 05:02:37;;;;;;;;;;;4.10;96.70;;;;;;4300403;33;19944;-22
2021/01/09 05:05:04;;;;;;;;;;;4.10;96.80;;;;;;4301510;33;20330;-22
2021/01/09 05:07:30;;;;;;;;;;;4.10;96.80;;;;;;4301768;33;19945;-22
2021/01/09 05:10:01;;;;;;;;;;;4.10;96.70;;;;;;4300596;33;19963;-23
2021/01/09 05:12:30;;;;;;;;;;;4.10;96.70;;;;;;4300471;33;20020;-23
2021/01/09 05:14:57;;;;;;;;;;;4.10;96.70;;;;;;4301306;33;19952;-22
2021/01/09 05:17:24;;;;;;;;;;;4.10;96.70;;;;;;4301391;33;19948;-22
2021/01/09 05:19:51;;;;;;;;;;;4.10;96.70;;;;;;4300288;33;20343;-22
2021/01/09 05:22:18;;;;;;;;;;;4.10;96.70;;;;;;4301572;33;19948;-22
2021/01/09 05:24:45;;;;;;;;;;;4.10;96.70;;;;;;4301443;33;19990;-23
2021/01/09 05:27:12;;;;;;;;;;;4.10;96.70;;;;;;4301923;33;19944;-23
2021/01/09 05:29:38;;;;;;;;;;;4.00;96.70;;;;;;4301130;33;20335;-22
2021/01/09 05:32:06;;;;;;;;;;;4.00;96.70;;;;;;4301262;33;19979;-22
2021/01/09 05:34:43;;;;;;;;;;;4.00;96.70;;;;;;4301366;33;19944;-23
2021/01/09 05:37:15;;;;;;;;;;;4.00;96.70;;;;;;4301456;33;19940;-23
2021/01/09 05:40:09;;;;;;;;;;;4.00;96.70;;;;;;4301293;33;19952;-23
2021/01/09 05:42:36;;;;;;;;;;;4.00;96.60;;;;;;4300661;33;19996;-22
2021/01/09 05:45:08;;;;;;;;;;;4.00;96.60;;;;;;4301510;33;19944;-22
2021/01/09 05:47:38;;;;;;;;;;;4.00;96.60;;;;;;4302862;33;20012;-23
2021/01/09 05:50:06;;;;;;;;;;;4.00;96.50;;;;;;4291519;33;19976;-22
2021/01/09 05:52:36;;;;;;;;;;;3.90;96.40;;;;;;4305509;33;20016;-23
2021/01/09 05:55:03;;;;;;;;;;;3.90;96.40;;;;;;4305589;33;19948;-23
2021/01/09 05:57:33;;;;;;;;;;;3.90;96.50;;;;;;4305697;33;19945;-22
2021/01/09 06:00:01;;;;;;;;;;;3.90;96.50;;;;;;4304205;33;19983;-22
2021/01/09 06:02:28;;;;;;;;;;;3.90;96.50;;;;;;4303675;33;20017;-22
2021/01/09 06:04:56;;;;;;;;;;;3.90;96.40;;;;;;4303756;33;19988;-22
2021/01/09 06:07:26;;;;;;;;;;;3.80;96.40;;;;;;4303794;33;19949;-22
2021/01/09 06:09:53;;;;;;;;;;;3.80;96.50;;;;;;4305748;33;19955;-22
2021/01/09 06:12:21;;;;;;;;;;;3.80;96.50;;;;;;4303866;33;19955;-22
2021/01/09 06:14:49;;;;;;;;;;;3.80;96.50;;;;;;4303986;33;20021;-23
2021/01/09 06:17:16;;;;;;;;;;;3.80;96.50;;;;;;4303554;33;19988;-22
2021/01/09 06:19:43;;;;;;;;;;;3.80;96.50;;;;;;4303638;33;19953;-22
2021/01/09 06:22:10;;;;;;;;;;;3.80;96.50;;;;;;4303580;33;19960;-22
2021/01/09 06:24:37;;;;;;;;;;;3.80;96.50;;;;;;4303679;33;19948;-22
2021/01/09 06:27:04;;;;;;;;;;;3.80;96.50;;;;;;4303707;33;19960;-22
2021/01/09 06:29:33;;;;;;;;;;;3.80;96.50;;;;;;4303693;33;20335;-23
2021/01/09 06:32:06;;;;;;;;;;;3.80;96.50;;;;;;4302773;33;19953;-22
2021/01/09 06:34:33;;;;;;;;;;;3.80;96.60;;;;;;4302668;33;20335;-22
2021/01/09 06:37:01;;;;;;;;;;;3.80;96.60;;;;;;4303718;33;19941;-22
2021/01/09 06:39:30;;;;;;;;;;;3.80;96.60;;;;;;4303525;33;19940;-22
2021/01/09 06:41:58;;;;;;;;;;;3.80;96.60;;;;;;4303356;33;19933;-23
2021/01/09 06:44:29;;;;;;;;;;;3.80;96.60;;;;;;4301974;33;19972;-22
2021/01/09 06:46:56;;;;;;;;;;;3.80;96.60;;;;;;4289818;33;19992;-23
2021/01/09 06:49:27;;;;;;;;;;;3.80;96.60;;;;;;4303147;33;19941;-22
2021/01/09 06:51:57;;;;;;;;;;;3.80;96.60;;;;;;4302391;33;19953;-22
2021/01/09 06:54:26;;;;;;;;;;;3.80;96.50;;;;;;4302255;33;19960;-22
2021/01/09 06:57:12;;;;;;;;;;;3.80;96.60;;;;;;4303339;33;19975;-23
2021/01/09 06:59:40;;;;;;;;;;;3.80;96.60;;;;;;4301371;33;20323;-22
2021/01/09 07:02:12;;;;;;;;;;;3.80;96.60;;;;;;4302748;33;20342;-23
2021/01/09 07:04:48;;;;;;;;;;;3.80;96.60;;;;;;4302854;33;19980;-22
2021/01/09 07:07:23;;;;;;;;;;;3.80;96.60;;;;;;4303233;33;20319;-23
2021/01/09 07:09:50;;;;;;;;;;;3.80;96.60;;;;;;4303413;33;20331;-23
2021/01/09 07:12:17;;;;;;;;;;;3.80;96.60;;;;;;4303333;33;19944;-22
2021/01/09 07:14:43;;;;;;;;;;;3.80;96.60;;;;;;4302973;33;19944;-22
2021/01/09 07:17:10;;;;;;;;;;;3.80;96.60;;;;;;4303003;33;19949;-22
2021/01/09 07:19:38;;;;;;;;;;;3.80;96.60;;;;;;4302043;33;19952;-23
2021/01/09 07:22:06;;;;;;;;;;;3.80;96.60;;;;;;4289956;33;19975;-22
2021/01/09 07:24:33;;;;;;;;;;;3.80;96.60;;;;;;4302655;33;20364;-22
2021/01/09 07:27:00;;;;;;;;;;;3.80;96.60;;;;;;4303007;33;19964;-22
2021/01/09 07:29:27;;;;;;;;;;;3.80;96.60;;;;;;4303069;33;19953;-23
2021/01/09 07:31:53;;;;;;;;;;;3.80;96.70;;;;;;4302922;33;20062;-22
2021/01/09 07:34:22;;;;;;;;;;;3.80;96.70;;;;;;4304416;33;19955;-23
2021/01/09 07:36:52;;;;;;;;;;;3.80;96.70;;;;;;4301425;33;19953;-23
2021/01/09 07:39:22;;;;;;;;;;;3.80;96.70;;;;;;4290006;33;19952;-23
2021/01/09 07:41:49;;;;;;;;;;;3.80;96.70;;;;;;4301726;33;19949;-22
2021/01/09 07:44:16;;;;;;;;;;;3.80;96.70;;;;;;4302579;33;20019;-22
2021/01/09 07:47:05;;;;;;;;;;;3.80;96.60;;;;;;4289683;33;19963;-23
2021/01/09 07:49:32;;;;;;;;;;;3.80;96.60;;;;;;4302846;33;19945;-23
2021/01/09 07:52:04;;;;;;;;;;;3.80;96.60;;;;;;4302664;33;20003;-23
2021/01/09 07:54:37;;;;;;;;;;;3.80;96.70;;;;;;4302651;33;19991;-22
2021/01/09 07:57:20;;;;;;;;;;;3.80;96.70;;;;;;4301601;33;19953;-22
2021/01/09 07:59:53;;;;;;;;;;;3.80;96.60;;;;;;4301012;33;19948;-22
2021/01/09 08:02:30;;;;;;;;;;;3.80;96.60;;;;;;4302065;33;20347;-22
2021/01/09 08:05:04;;;;;;;;;;;3.80;96.60;;;;;;4301267;33;19948;-23
2021/01/09 08:07:32;;;;;;;;;;;3.80;96.70;;;;;;4302545;33;19944;-22
2021/01/09 08:09:58;;;;;;;;;;;3.80;96.60;;;;;;4289253;33;19949;-22
2021/01/09 08:12:26;;;;;;;;;;;3.80;96.60;;;;;;4302521;33;19976;-23
2021/01/09 08:14:56;;;;;;;;;;;3.80;96.60;;;;;;4300975;33;19945;-22
2021/01/09 08:17:23;;;;;;;;;;;3.80;96.60;;;;;;4289067;33;19956;-22
2021/01/09 08:19:49;;;;;;;;;;;3.80;96.60;;;;;;4302102;33;19949;-22
2021/01/09 08:22:16;;;;;;;;;;;3.80;96.60;;;;;;4302136;33;20016;-23
2021/01/09 08:24:42;;;;;;;;;;;3.80;96.60;;;;;;4302148;33;19967;-22
2021/01/09 08:27:18;;;;;;;;;;;3.80;96.60;;;;;;4301795;33;19944;-22
2021/01/09 08:29:46;;;;;;;;;;;3.80;96.60;;;;;;4302241;33;19949;-22
2021/01/09 08:32:14;;;;;;;;;;;3.80;96.60;;;;;;4301729;33;19945;-22
2021/01/09 08:34:47;;;;;;;;;;;3.80;96.60;;;;;;4301614;33;20270;-23
2021/01/09 08:37:15;;;;;;;;;;;3.80;96.50;;;;;;4277018;33;20504;-22
2021/01/09 08:39:44;;;;;;;;;;;3.80;96.50;;;;;;4302208;33;19945;-22
2021/01/09 08:42:15;;;;;;;;;;;3.80;96.50;;;;;;4300524;33;19957;-22
2021/01/09 08:44:45;;;;;;;;;;;3.80;96.50;;;;;;4300680;33;19984;-22
2021/01/09 08:47:16;;;;;;;;;;;3.80;96.50;;;;;;4301818;33;19949;-22
2021/01/09 08:49:46;;;;;;;;;;;3.80;96.50;;;;;;4288617;33;20340;-22
2021/01/09 08:52:16;;;;;;;;;;;3.80;96.50;;;;;;4300685;33;20390;-23
2021/01/09 08:54:46;;;;;;;;;;;3.80;96.60;;;;;;4301948;33;19941;-23
2021/01/09 08:57:14;;;;;;;;;;;3.80;96.60;;;;;;4300571;33;19983;-23
2021/01/09 08:59:41;;;;;;;;;;;3.80;96.60;;;;;;4301819;33;20323;-22
2021/01/09 09:02:10;;;;;;;;;;;3.80;96.60;;;;;;4301300;33;19949;-23
2021/01/09 09:04:41;;;;;;;;;;;3.80;96.70;;;;;;4300286;33;19962;-22
2021/01/09 09:07:09;;;;;;;;;;;3.80;96.60;;;;;;4303526;33;19953;-22
2021/01/09 09:09:40;;;;;;;;;;;3.80;96.70;;;;;;4301452;33;20044;-23
2021/01/09 09:12:07;;;;;;;;;;;3.80;96.70;;;;;;4300466;33;19948;-23
2021/01/09 09:14:34;;;;;;;;;;;3.80;96.60;;;;;;4300490;33;19949;-23
2021/01/09 09:17:01;;;;;;;;;;;3.80;96.60;;;;;;4301619;33;19979;-23
2021/01/09 09:19:33;;;;;;;;;;;3.80;96.60;;;;;;4300236;33;19952;-23
2021/01/09 09:22:00;;;;;;;;;;;3.80;96.70;;;;;;4301289;33;19975;-23
2021/01/09 09:24:40;;;;;;;;;;;3.80;96.70;;;;;;4301349;33;19983;-22
2021/01/09 09:27:20;;;;;;;;;;;3.80;96.70;;;;;;4301445;33;19960;-23
2021/01/09 09:30:04;;;;;;;;;;;3.80;96.60;;;;;;4301713;33;19949;-23
2021/01/09 09:32:31;;;;;;;;;;;3.80;96.60;;;;;;4301346;33;19983;-22
2021/01/09 09:35:19;;;;;;;;;;;3.80;96.60;;;;;;4300070;33;20368;-22
2021/01/09 09:37:46;;;;;;;;;;;3.80;97.00;;;;;;4301443;33;20382;-22
2021/01/09 09:40:23;;;;;;;;;;;3.80;96.70;;;;;;4301504;33;19971;-23
2021/01/09 09:42:49;;;;;;;;;;;3.80;96.70;;;;;;4301100;33;19965;-22
2021/01/09 09:45:19;;;;;;;;;;;3.80;96.70;;;;;;4301444;33;20366;-22
2021/01/09 09:47:50;;;;;;;;;;;3.90;96.70;;;;;;4300328;33;20366;-22
2021/01/09 09:50:25;;;;;;;;;;;3.80;96.70;;;;;;4301379;33;19948;-23
2021/01/09 09:52:58;;;;;;;;;;;3.80;96.70;;;;;;4301643;33;20409;-23
2021/01/09 09:55:25;;;;;;;;;;;3.80;96.70;;;;;;4301100;33;20297;-23
2021/01/09 09:58:08;;;;;;;;;;;3.80;96.70;;;;;;4300928;33;19976;-22
2021/01/09 10:00:41;;;;;;;;;;;3.80;96.70;;;;;;4301338;33;19982;-23
2021/01/09 10:03:07;;;;;;;;;;;3.80;96.60;;;;;;4300982;33;20007;-23
2021/01/09 10:05:34;;;;;;;;;;;3.80;96.60;;;;;;4300448;33;19957;-22
2021/01/09 10:08:13;;;;;;;;;;;3.80;96.70;;;;;;4301441;33;19986;-22
2021/01/09 10:10:40;;;;;;;;;;;3.80;96.70;;;;;;4300331;33;20012;-22
2021/01/09 10:13:06;;;;;;;;;;;3.80;96.70;;;;;;4301157;33;20326;-23
2021/01/09 10:15:33;;;;;;;;;;;3.80;96.70;;;;;;4288125;33;19941;-22
2021/01/09 10:18:00;;;;;;;;;;;3.80;96.70;;;;;;4300923;33;19944;-23
2021/01/09 10:20:28;;;;;;;;;;;3.80;96.80;;;;;;4299916;33;20382;-22
2021/01/09 10:22:55;;;;;;;;;;;3.90;96.80;;;;;;4300174;33;19949;-22
2021/01/09 10:25:22;;;;;;;;;;;3.80;96.80;;;;;;4301211;33;20271;-23
2021/01/09 10:27:51;;;;;;;;;;;3.80;96.80;;;;;;4301123;33;19956;-23
2021/01/09 10:30:18;;;;;;;;;;;3.80;96.80;;;;;;4300279;33;19959;-22
2021/01/09 10:32:45;;;;;;;;;;;3.80;96.80;;;;;;4299749;33;20413;-22
2021/01/09 10:35:11;;;;;;;;;;;3.80;96.80;;;;;;4303250;33;19963;-22
2021/01/09 10:37:38;;;;;;;;;;;3.90;96.70;;;;;;4302447;33;19959;-22
2021/01/09 10:40:05;;;;;;;;;;;3.80;96.70;;;;;;4303519;33;20331;-22
2021/01/09 10:42:32;;;;;;;;;;;3.80;96.70;;;;;;4303458;33;19952;-23
2021/01/09 10:44:59;;;;;;;;;;;3.80;96.70;;;;;;4303526;33;19972;-23
2021/01/09 10:47:26;;;;;;;;;;;3.80;96.70;;;;;;4303684;33;20384;-22
2021/01/09 10:49:55;;;;;;;;;;;3.80;96.80;;;;;;4303286;33;19945;-22
2021/01/09 10:52:21;;;;;;;;;;;3.80;96.80;;;;;;4303298;33;19948;-22
2021/01/09 10:54:48;;;;;;;;;;;3.90;96.80;;;;;;4303383;33;19955;-22
2021/01/09 10:57:14;;;;;;;;;;;3.80;96.80;;;;;;4303343;33;19983;-23
2021/01/09 10:59:41;;;;;;;;;;;3.80;96.80;;;;;;4303408;33;19967;-23
2021/01/09 11:02:07;;;;;;;;;;;3.80;96.80;;;;;;4302690;33;20351;-23
2021/01/09 11:04:34;;;;;;;;;;;3.90;96.80;;;;;;4303539;33;20248;-22
2021/01/09 11:07:01;;;;;;;;;;;3.80;96.80;;;;;;4303157;33;20302;-22
2021/01/09 11:09:27;;;;;;;;;;;3.80;96.80;;;;;;4303127;33;19949;-22
2021/01/09 11:11:54;;;;;;;;;;;3.90;96.80;;;;;;4303184;33;19944;-23
2021/01/09 11:14:20;;;;;;;;;;;3.90;96.80;;;;;;4302738;33;19949;-23
2021/01/09 11:16:47;;;;;;;;;;;3.90;96.80;;;;;;4302869;33;19963;-22
2021/01/09 11:19:14;;;;;;;;;;;3.90;96.80;;;;;;4302838;33;20073;-23
2021/01/09 11:21:40;;;;;;;;;;;3.90;96.90;;;;;;4302869;33;19953;-22
2021/01/09 11:24:07;;;;;;;;;;;3.90;96.80;;;;;;4303073;33;20012;-22
2021/01/09 11:26:33;;;;;;;;;;;3.90;96.80;;;;;;4302546;33;19998;-22
2021/01/09 11:28:59;;;;;;;;;;;3.80;96.80;;;;;;4303142;33;19984;-22
2021/01/09 11:31:26;;;;;;;;;;;3.80;96.80;;;;;;4302643;33;20402;-23
2021/01/09 11:33:52;;;;;;;;;;;3.80;96.80;;;;;;4302670;33;19948;-22
2021/01/09 11:36:19;;;;;;;;;;;3.80;96.80;;;;;;4302702;33;19949;-23
2021/01/09 11:38:46;;;;;;;;;;;3.80;96.80;;;;;;4302683;33;19998;-22
2021/01/09 11:41:13;;;;;;;;;;;3.80;96.80;;;;;;4302370;33;19983;-22
2021/01/09 11:43:41;;;;;;;;;;;3.80;96.70;;;;;;4302498;33;19959;-22
2021/01/09 11:46:08;;;;;;;;;;;3.80;96.70;;;;;;4301338;33;19963;-22
2021/01/09 11:48:35;;;;;;;;;;;3.90;96.80;;;;;;4302501;33;19959;-23
2021/01/09 11:51:03;;;;;;;;;;;3.80;96.80;;;;;;4302570;33;19952;-22
2021/01/09 11:53:29;;;;;;;;;;;3.80;96.70;;;;;;4301511;33;19987;-23
2021/01/09 11:55:56;;;;;;;;;;;3.80;96.70;;;;;;4302808;33;19983;-23
2021/01/09 11:58:23;;;;;;;;;;;3.80;96.80;;;;;;4301555;33;20448;-23
2021/01/09 12:00:50;;;;;;;;;;;3.80;96.70;;;;;;4302657;33;20013;-23
2021/01/09 12:03:17;;;;;;;;;;;3.80;96.70;;;;;;4302138;33;19957;-22
2021/01/09 12:05:44;;;;;;;;;;;3.80;96.70;;;;;;4302361;33;20331;-22
2021/01/09 12:08:10;;;;;;;;;;;3.80;96.70;;;;;;4302355;33;20300;-22
2021/01/09 12:10:40;;;;;;;;;;;3.80;96.70;;;;;;4302029;33;19949;-23
2021/01/09 12:13:07;;;;;;;;;;;3.80;96.70;;;;;;4302506;33;20022;-22
2021/01/09 12:15:33;;;;;;;;;;;3.80;96.70;;;;;;4302218;33;19953;-22
2021/01/09 12:18:00;;;;;;;;;;;3.80;96.70;;;;;;4302129;33;19949;-22
2021/01/09 12:20:26;;;;;;;;;;;3.80;96.70;;;;;;4302170;33;19980;-22
2021/01/09 12:22:53;;;;;;;;;;;3.80;96.70;;;;;;4302136;33;20244;-23
2021/01/09 12:25:19;;;;;;;;;;;3.80;96.70;;;;;;4301870;33;19948;-23
2021/01/09 12:27:48;;;;;;;;;;;3.80;96.70;;;;;;4301992;33;19955;-22
2021/01/09 12:30:15;;;;;;;;;;;3.80;96.70;;;;;;4302029;33;19945;-23
2021/01/09 12:32:41;;;;;;;;;;;3.80;96.60;;;;;;4301961;33;19957;-22
2021/01/09 12:35:08;;;;;;;;;;;3.70;96.60;;;;;;4301948;33;19960;-23
2021/01/09 12:37:37;;;;;;;;;;;3.80;96.60;;;;;;4302186;33;19941;-23
2021/01/09 12:40:04;;;;;;;;;;;3.80;96.60;;;;;;4301678;33;19945;-22
2021/01/09 12:42:30;;;;;;;;;;;3.80;96.70;;;;;;4301779;33;19944;-22
2021/01/09 12:44:56;;;;;;;;;;;3.80;96.70;;;;;;4301729;33;19959;-23
2021/01/09 12:47:23;;;;;;;;;;;3.80;96.70;;;;;;4301709;33;19975;-22
2021/01/09 12:49:53;;;;;;;;;;;3.80;96.70;;;;;;4301858;33;19949;-23
2021/01/09 12:52:19;;;;;;;;;;;3.80;96.70;;;;;;4301857;33;19945;-23
2021/01/09 12:54:45;;;;;;;;;;;3.80;96.70;;;;;;4301831;33;20402;-22
2021/01/09 12:57:12;;;;;;;;;;;3.80;96.70;;;;;;4301333;33;19941;-22
2021/01/09 12:59:38;;;;;;;;;;;3.80;96.70;;;;;;4301596;33;20315;-23
2021/01/09 13:02:05;;;;;;;;;;;3.80;96.70;;;;;;4301283;33;20342;-22
2021/01/09 13:04:32;;;;;;;;;;;3.80;96.70;;;;;;4301567;33;19937;-23
2021/01/09 13:06:59;;;;;;;;;;;3.80;96.70;;;;;;4301329;33;19955;-23
2021/01/09 13:09:29;;;;;;;;;;;3.80;96.70;;;;;;4301407;33;19948;-22
2021/01/09 13:12:01;;;;;;;;;;;3.80;96.70;;;;;;4300545;33;20339;-22
2021/01/09 13:14:28;;;;;;;;;;;3.80;96.70;;;;;;4300757;33;19999;-22
2021/01/09 13:16:55;;;;;;;;;;;3.80;96.60;;;;;;4301641;33;19948;-22
2021/01/09 13:19:23;;;;;;;;;;;3.80;96.60;;;;;;4300418;33;19958;-23
2021/01/09 13:21:53;;;;;;;;;;;3.70;96.50;;;;;;4301702;33;19982;-22
2021/01/09 13:24:21;;;;;;;;;;;3.70;96.50;;;;;;4300301;33;20369;-22
2021/01/09 13:26:48;;;;;;;;;;;3.70;96.50;;;;;;4300399;33;19941;-22
2021/01/09 13:29:14;;;;;;;;;;;3.70;96.50;;;;;;4301374;33;19964;-22
2021/01/09 13:31:42;;;;;;;;;;;3.70;96.50;;;;;;4303083;33;19952;-23
2021/01/09 13:34:09;;;;;;;;;;;3.70;96.60;;;;;;4300009;33;19992;-23
2021/01/09 13:36:38;;;;;;;;;;;3.70;96.60;;;;;;4287936;33;19988;-22
2021/01/09 13:39:06;;;;;;;;;;;3.70;96.60;;;;;;4301254;33;19984;-22
2021/01/09 13:41:33;;;;;;;;;;;3.70;96.60;;;;;;4301379;33;19949;-22
2021/01/09 13:43:59;;;;;;;;;;;3.70;96.60;;;;;;4301323;33;19949;-22
2021/01/09 13:46:30;;;;;;;;;;;3.70;96.60;;;;;;4301332;33;20019;-23
2021/01/09 13:48:58;;;;;;;;;;;3.70;96.60;;;;;;4299854;33;20302;-22
2021/01/09 13:51:25;;;;;;;;;;;3.70;96.60;;;;;;4300219;33;19948;-23
2021/01/09 13:53:52;;;;;;;;;;;3.70;96.60;;;;;;4300940;33;20290;-22
2021/01/09 13:56:30;;;;;;;;;;;3.70;96.60;;;;;;4301470;33;19944;-23
2021/01/09 13:58:56;;;;;;;;;;;3.70;96.60;;;;;;4301400;33;20309;-23
2021/01/09 14:01:23;;;;;;;;;;;3.70;96.60;;;;;;4302711;33;19959;-23
2021/01/09 14:03:50;;;;;;;;;;;3.70;97.00;;;;;;4299959;33;19960;-23
2021/01/09 14:06:37;;;;;;;;;;;3.70;96.60;;;;;;4301459;33;19940;-23
2021/01/09 14:09:04;;;;;;;;;;;3.70;96.70;;;;;;4303266;33;19957;-22
2021/01/09 14:11:33;;;;;;;;;;;3.70;96.70;;;;;;4304019;33;19960;-23
2021/01/09 14:14:01;;;;;;;;;;;3.70;96.70;;;;;;4305231;33;19997;-23
2021/01/09 14:16:29;;;;;;;;;;;3.70;96.70;;;;;;4303813;33;19987;-23
2021/01/09 14:18:56;;;;;;;;;;;3.70;96.70;;;;;;4303700;33;20027;-22
2021/01/09 14:21:23;;;;;;;;;;;3.80;96.70;;;;;;4303750;33;20343;-22
2021/01/09 14:23:50;;;;;;;;;;;3.70;96.70;;;;;;4303856;33;19949;-22
2021/01/09 14:26:17;;;;;;;;;;;3.80;96.70;;;;;;4303774;33;19959;-23
2021/01/09 14:28:44;;;;;;;;;;;3.80;96.70;;;;;;4303362;33;19980;-23
2021/01/09 14:31:15;;;;;;;;;;;3.70;96.60;;;;;;4302575;33;19957;-22
2021/01/09 14:33:43;;;;;;;;;;;3.80;96.70;;;;;;4303864;33;19944;-22
2021/01/09 14:36:14;;;;;;;;;;;3.70;96.70;;;;;;4303680;33;19949;-22